Saint-Fulgence, Canada
Current Conditions -  °F | °C
As of 7:00 PM on Friday 28 Nov 2014 (Local Time) from CYBG Reporting Station
Snow Showers Snow Showers  
Wind Chill:   Ceiling: 3000
Heat Index: 14°   Visibility: 15mi
Dew Point:   Wind: 6mph
Humidity: 73%   Direction: 260°W
Pressure: 30.1"   Gusts: NA
Location:  48.45°N, 70.9°W
Report Text: CYBG 290000Z 26005KT 15SM -SHSN BKN030 M10/M14 A3010 RMK SC6 SLP207
Loading
Personal Weather Stations






























Interactive Weather Map New forecast layout! Learn more

10-Day Weather Forecast

Advertisements
Track Severe Weather on mobile